VECC/CCU METAR and TAF weather

Enter ICAO airport designator
Station Type Date Time Source
VECC METAR 2018/12/10 13:30 UTC NOAA

VECC 101330Z 36003KT 3200 HZ NSC 20/13 Q1013 NOSIG


Station Type Date Time Source
VECC Decoded METAR 2018/12/10 13:30 UTC NOAA

Calcutta / Dum Dum, India (VECC) 22-39N 088-27E 6M
Dec 10, 2018 - 08:30 AM EST / 2018.12.10 1330 UTC
Wind: from the N (360 degrees) at 3 MPH (3 KT):0
Visibility: 1 mile(s):0
Weather: haze
Temperature: 68 F (20 C)
Dew Point: 55 F (13 C)
Relative Humidity: 64%
Pressure (altimeter): 29.91 in. Hg (1013 hPa)
ob: VECC 101330Z 36003KT 3200 HZ NSC 20/13 Q1013 NOSIG
cycle: 13

Station Type Date Time Source
VECC TAF 2018/12/10 12:39 UTC NOAA

TAF TAF VECC 101100Z 1012/1118 00000KT 3200 HZ NSC
BECMG 1015/1017 2400 BR
BECMG 1023/1101 1200 BR
BECMG 1103/1105 01005KT 2400 HZ
BECMG 1106/1108 4000 HZ
BECMG 1112/1114 00000KT 2600 HZ


Example: see airport list